createdAt,value
2018-10-11T00:01:47.931Z,99.90
2018-10-11T00:06:51.290Z,99.90
2018-10-11T00:11:54.601Z,99.90
2018-10-11T00:16:57.878Z,99.90
2018-10-11T00:22:02.318Z,99.90
2018-10-11T00:27:05.562Z,99.90
2018-10-11T00:32:08.908Z,99.90
2018-10-11T00:37:12.111Z,99.90
2018-10-11T00:42:15.385Z,99.90
2018-10-11T00:47:18.629Z,99.90
2018-10-11T00:52:21.838Z,99.90
2018-10-11T00:57:26.295Z,99.90
2018-10-11T01:02:30.002Z,99.90
2018-10-11T01:07:33.303Z,99.90
2018-10-11T01:12:36.530Z,99.90
2018-10-11T01:17:39.882Z,99.90
2018-10-11T01:22:43.182Z,99.90
2018-10-11T01:27:46.398Z,99.90
2018-10-11T01:32:49.604Z,99.90
2018-10-11T01:37:52.866Z,99.90
2018-10-11T01:43:03.472Z,99.90
2018-10-11T01:48:06.803Z,99.90
2018-10-11T01:53:09.997Z,99.90
2018-10-11T01:58:13.206Z,99.90
2018-10-11T02:03:16.397Z,99.90
2018-10-11T02:08:20.010Z,99.90
2018-10-11T02:13:23.213Z,99.90
2018-10-11T02:18:26.440Z,99.90
2018-10-11T02:23:29.738Z,99.90
2018-10-11T02:28:33.871Z,99.90
2018-10-11T02:33:39.136Z,99.90
2018-10-11T02:38:42.370Z,99.90
2018-10-11T02:43:45.630Z,99.90
2018-10-11T02:48:48.907Z,99.90
2018-10-11T02:53:52.226Z,99.90
2018-10-11T02:59:06.866Z,99.90
2018-10-11T03:04:10.080Z,99.90
2018-10-11T03:09:13.318Z,99.90
2018-10-11T03:14:16.486Z,99.90
2018-10-11T03:19:19.700Z,99.90
2018-10-11T03:24:22.971Z,99.90
2018-10-11T03:29:26.214Z,99.90
2018-10-11T03:34:30.022Z,99.90
2018-10-11T03:39:33.234Z,99.90
2018-10-11T03:44:36.543Z,99.90
2018-10-11T03:49:39.804Z,99.90
2018-10-11T03:54:43.359Z,99.90
2018-10-11T03:59:46.578Z,99.90
2018-10-11T04:04:49.762Z,99.90
2018-10-11T04:09:52.979Z,99.90
2018-10-11T04:14:56.170Z,99.90
2018-10-11T04:19:59.470Z,99.90
2018-10-11T04:25:02.690Z,99.90
2018-10-11T04:30:05.890Z,99.90
2018-10-11T04:35:09.047Z,99.90
2018-10-11T04:40:12.242Z,99.90
2018-10-11T04:45:16.209Z,99.90
2018-10-11T04:50:20.517Z,99.90
2018-10-11T04:55:23.817Z,99.90
2018-10-11T05:00:27.820Z,99.90
2018-10-11T05:05:31.079Z,99.90
2018-10-11T05:10:34.266Z,99.90
2018-10-11T05:15:37.894Z,99.90
2018-10-11T05:20:41.435Z,99.90
2018-10-11T05:25:44.603Z,99.90
2018-10-11T05:30:47.738Z,99.90
2018-10-11T05:35:50.918Z,99.90
2018-10-11T05:40:55.429Z,99.90
2018-10-11T05:46:00.564Z,99.90
2018-10-11T05:51:04.338Z,99.90
2018-10-11T05:56:10.578Z,99.90
2018-10-11T06:01:13.764Z,99.90
2018-10-11T06:06:16.959Z,99.90
2018-10-11T06:11:20.314Z,99.90
2018-10-11T06:16:23.512Z,99.90
2018-10-11T06:21:26.722Z,99.90
2018-10-11T06:26:29.960Z,99.90
2018-10-11T06:31:45.393Z,99.90
2018-10-11T06:36:48.621Z,99.90
2018-10-11T06:41:51.812Z,99.90
2018-10-11T06:46:55.510Z,99.90
2018-10-11T06:51:58.739Z,99.90
2018-10-11T06:57:01.992Z,99.90
2018-10-11T07:02:05.375Z,99.90
2018-10-11T07:07:08.602Z,99.90
2018-10-11T07:12:12.794Z,99.90
2018-10-11T07:17:16.438Z,99.90
2018-10-11T07:22:20.899Z,99.90
2018-10-11T07:27:24.404Z,99.90
2018-10-11T07:32:27.904Z,99.90
2018-10-11T07:37:31.156Z,99.90
2018-10-11T07:42:34.417Z,99.90
2018-10-11T07:47:37.790Z,99.90
2018-10-11T07:52:41.024Z,99.90
2018-10-11T07:57:44.190Z,99.90
2018-10-11T08:02:47.433Z,99.90
2018-10-11T08:07:50.642Z,99.90
2018-10-11T08:12:53.785Z,99.90
2018-10-11T08:17:57.167Z,99.90
2018-10-11T08:23:00.130Z,99.90
2018-10-11T08:28:03.384Z,99.90
2018-10-11T08:33:07.075Z,99.90
2018-10-11T08:38:10.299Z,99.90
2018-10-11T08:43:13.353Z,99.90
2018-10-11T08:48:19.706Z,99.90
2018-10-11T08:53:22.921Z,99.90
2018-10-11T08:58:26.090Z,99.90
2018-10-11T09:03:29.269Z,99.90
2018-10-11T09:08:32.390Z,99.90
2018-10-11T09:13:35.602Z,99.90
2018-10-11T09:18:38.794Z,99.90
2018-10-11T09:23:41.946Z,99.90
2018-10-11T09:28:46.410Z,99.90
2018-10-11T09:33:49.583Z,99.90
2018-10-11T09:38:53.159Z,99.90
2018-10-11T09:43:57.523Z,99.90
2018-10-11T09:49:11.506Z,99.90
2018-10-11T09:54:14.728Z,99.90
2018-10-11T09:59:17.939Z,99.90
2018-10-11T10:04:21.190Z,99.90
2018-10-11T10:09:24.346Z,99.90
2018-10-11T10:14:27.613Z,99.90
2018-10-11T10:19:31.590Z,99.90
2018-10-11T10:24:34.782Z,99.90
2018-10-11T10:29:38.102Z,99.90
2018-10-11T10:34:41.302Z,99.90
2018-10-11T10:39:44.564Z,99.90
2018-10-11T10:44:47.820Z,99.90
2018-10-11T10:49:51.560Z,99.90
2018-10-11T10:55:02.055Z,99.90
2018-10-11T11:00:10.239Z,99.90
2018-10-11T11:05:13.480Z,99.90
2018-10-11T11:10:25.774Z,99.90
2018-10-11T11:15:29.107Z,99.90
2018-10-11T11:20:32.922Z,99.50
2018-10-11T11:25:38.089Z,99.30
2018-10-11T11:30:41.404Z,99.30
2018-10-11T11:35:44.698Z,99.30
2018-10-11T11:40:49.342Z,98.80
2018-10-11T11:45:52.743Z,98.60
2018-10-11T11:50:55.906Z,97.90
2018-10-11T11:55:59.425Z,97.70
2018-10-11T12:01:02.857Z,97.20
2018-10-11T12:06:07.121Z,97.00
2018-10-11T12:11:17.558Z,97.00
2018-10-11T12:16:20.782Z,97.50
2018-10-11T12:21:24.118Z,96.90
2018-10-11T12:26:27.645Z,96.50
2018-10-11T12:31:30.850Z,96.60
2018-10-11T12:36:36.272Z,97.00
2018-10-11T12:41:39.459Z,96.50
2018-10-11T12:46:43.881Z,96.60
2018-10-11T12:51:47.064Z,96.40
2018-10-11T12:56:50.377Z,96.00
2018-10-11T13:01:53.594Z,97.00
2018-10-11T13:06:56.866Z,96.60
2018-10-11T13:12:02.595Z,96.30
2018-10-11T13:17:08.134Z,96.10
2018-10-11T13:22:12.478Z,95.90
2018-10-11T13:27:15.848Z,95.10
2018-10-11T13:32:20.266Z,95.20
2018-10-11T13:37:23.538Z,94.80
2018-10-11T13:42:26.948Z,95.10
2018-10-11T13:47:36.457Z,95.90
2018-10-11T13:52:35.458Z,96.20
2018-10-11T13:57:47.429Z,95.30
2018-10-11T14:02:50.934Z,95.00
2018-10-11T14:07:54.686Z,95.10
2018-10-11T14:13:02.052Z,94.80
2018-10-11T14:18:09.286Z,95.20
2018-10-11T14:23:08.935Z,95.00
2018-10-11T14:28:14.321Z,95.60
2018-10-11T14:33:17.591Z,95.20
2018-10-11T14:38:24.461Z,95.70
2018-10-11T14:43:27.680Z,95.60
2018-10-11T14:48:30.860Z,95.30
2018-10-11T14:53:34.059Z,94.90
2018-10-11T14:58:37.298Z,95.10
2018-10-11T15:03:40.530Z,95.70
2018-10-11T15:08:44.179Z,96.00
2018-10-11T15:13:49.535Z,96.70
2018-10-11T15:18:53.842Z,97.00
2018-10-11T15:23:58.023Z,97.00
2018-10-11T15:29:02.086Z,97.40
2018-10-11T15:34:08.102Z,97.40
2018-10-11T15:39:15.314Z,97.80
2018-10-11T15:44:19.503Z,98.60
2018-10-11T15:49:26.002Z,99.30
2018-10-11T15:54:29.551Z,99.90
2018-10-11T15:59:32.899Z,99.90
2018-10-11T16:04:46.690Z,99.90
2018-10-11T16:09:50.015Z,99.90
2018-10-11T16:14:54.374Z,99.90
2018-10-11T16:19:57.860Z,99.90
2018-10-11T16:25:05.227Z,99.90
2018-10-11T16:30:11.035Z,99.90
2018-10-11T16:35:15.467Z,99.90
2018-10-11T16:40:25.602Z,99.90
2018-10-11T16:45:29.598Z,99.90
2018-10-11T16:50:33.057Z,99.90
2018-10-11T16:55:36.314Z,99.90
2018-10-11T17:00:39.586Z,99.90
2018-10-11T17:05:42.982Z,99.90
2018-10-11T17:10:46.355Z,99.90
2018-10-11T17:15:53.887Z,99.90
2018-10-11T17:20:57.220Z,99.90
2018-10-11T17:26:04.569Z,99.90
2018-10-11T17:31:08.952Z,99.90
2018-10-11T17:36:12.554Z,99.90
2018-10-11T17:41:16.982Z,99.90
2018-10-11T17:46:20.802Z,99.90
2018-10-11T17:51:24.076Z,99.90
2018-10-11T17:56:27.521Z,99.90
2018-10-11T18:01:33.965Z,99.90
2018-10-11T18:06:37.259Z,99.90
2018-10-11T18:11:41.224Z,99.90
2018-10-11T18:16:44.526Z,99.90
2018-10-11T18:21:47.826Z,99.90
2018-10-11T18:26:51.014Z,99.90
2018-10-11T18:31:54.295Z,99.90
2018-10-11T18:36:57.801Z,99.90
2018-10-11T18:42:00.982Z,99.90
2018-10-11T18:47:04.291Z,99.90
2018-10-11T18:52:07.623Z,99.90
2018-10-11T18:57:10.880Z,99.90
2018-10-11T19:02:14.189Z,99.90
2018-10-11T19:07:18.504Z,99.90
2018-10-11T19:12:21.754Z,99.90
2018-10-11T19:17:29.709Z,99.90
2018-10-11T19:22:36.234Z,99.90
2018-10-11T19:27:40.137Z,99.90
2018-10-11T19:32:44.551Z,99.90
2018-10-11T19:37:52.593Z,99.90
2018-10-11T19:42:58.331Z,99.90
2018-10-11T19:48:02.628Z,99.90
2018-10-11T19:53:05.885Z,99.90
2018-10-11T19:58:10.228Z,99.90
2018-10-11T20:03:13.489Z,99.90
2018-10-11T20:08:28.873Z,99.90
2018-10-11T20:13:32.230Z,99.90
2018-10-11T20:18:55.838Z,99.90
2018-10-11T20:23:59.410Z,99.90
2018-10-11T20:29:14.819Z,99.90
2018-10-11T20:34:18.049Z,99.90
2018-10-11T20:39:22.322Z,99.90
2018-10-11T20:44:26.019Z,99.90
2018-10-11T20:49:30.611Z,99.90
2018-10-11T20:54:34.934Z,99.90
2018-10-11T20:59:39.134Z,99.90
2018-10-11T21:09:57.072Z,99.90
2018-10-11T21:15:00.978Z,99.90
2018-10-11T21:20:11.540Z,99.90
2018-10-11T21:25:15.475Z,99.90
2018-10-11T21:30:20.418Z,99.90
2018-10-11T21:35:31.513Z,99.90
2018-10-11T21:40:35.622Z,99.90
2018-10-11T21:45:43.980Z,99.90
2018-10-11T21:50:49.478Z,99.90
2018-10-11T21:55:53.575Z,99.90
2018-10-11T22:06:26.836Z,99.90
2018-10-11T22:11:30.790Z,99.90
2018-10-11T22:16:39.499Z,99.90
2018-10-11T22:21:42.722Z,99.90
2018-10-11T22:26:45.914Z,99.90
2018-10-11T22:31:50.197Z,99.90
2018-10-11T22:36:53.460Z,99.90
2018-10-11T22:42:05.866Z,99.90
2018-10-11T22:47:09.638Z,99.90
2018-10-11T22:52:13.102Z,99.90
2018-10-11T22:57:18.744Z,99.90
2018-10-11T23:02:22.522Z,99.90
2018-10-11T23:07:27.738Z,99.90
2018-10-11T23:12:30.950Z,99.90
2018-10-11T23:17:34.166Z,99.90
2018-10-11T23:22:38.365Z,99.90
2018-10-11T23:28:17.757Z,99.90
2018-10-11T23:33:21.006Z,99.90
2018-10-11T23:38:39.770Z,99.90
2018-10-11T23:43:52.111Z,99.90
2018-10-11T23:48:55.288Z,99.90
2018-10-11T23:53:58.456Z,99.90
2018-10-11T23:59:01.630Z,99.90
